createdAt,value
2023-08-15T00:00:31.840Z,984.53
2023-08-15T00:01:31.931Z,984.53
2023-08-15T00:02:31.890Z,984.52
2023-08-15T00:03:31.923Z,984.51
2023-08-15T00:04:31.774Z,984.51
2023-08-15T00:05:31.750Z,984.49
2023-08-15T00:06:31.760Z,984.44
2023-08-15T00:07:31.729Z,984.40
2023-08-15T00:08:31.766Z,984.37
2023-08-15T00:09:31.702Z,984.36
2023-08-15T00:10:31.724Z,984.34
2023-08-15T00:11:31.689Z,984.31
2023-08-15T00:12:31.941Z,984.29
2023-08-15T00:13:31.696Z,984.26
2023-08-15T00:14:32.976Z,984.24
2023-08-15T00:15:31.650Z,984.23
2023-08-15T00:16:31.666Z,984.23
2023-08-15T00:17:31.641Z,984.25
2023-08-15T00:18:31.627Z,984.27
2023-08-15T00:19:31.599Z,984.29
2023-08-15T00:20:31.618Z,984.30
2023-08-15T00:21:31.582Z,984.30
2023-08-15T00:22:31.584Z,984.30
2023-08-15T00:23:31.551Z,984.30
2023-08-15T00:24:31.566Z,984.28
2023-08-15T00:25:31.622Z,984.26
2023-08-15T00:26:31.551Z,984.24
2023-08-15T00:27:31.509Z,984.24
2023-08-15T00:28:31.514Z,984.25
2023-08-15T00:29:31.513Z,984.25
2023-08-15T00:30:31.531Z,984.25
2023-08-15T00:31:31.464Z,984.24
2023-08-15T00:32:31.511Z,984.23
2023-08-15T00:33:31.448Z,984.23
2023-08-15T00:34:31.453Z,984.21
2023-08-15T00:35:31.423Z,984.19
2023-08-15T00:36:31.498Z,984.18
2023-08-15T00:37:31.629Z,984.18
2023-08-15T00:38:31.429Z,984.16
2023-08-15T00:39:31.384Z,984.14
2023-08-15T00:40:31.411Z,984.12
2023-08-15T00:41:31.417Z,984.10
2023-08-15T00:42:31.405Z,984.07
2023-08-15T00:43:31.338Z,984.04
2023-08-15T00:44:32.459Z,984.03
2023-08-15T00:45:31.353Z,984.03
2023-08-15T00:46:31.341Z,984.03
2023-08-15T00:47:31.332Z,984.02
2023-08-15T00:48:31.297Z,984.01
2023-08-15T00:49:31.270Z,984.00
2023-08-15T00:50:31.265Z,984.01
2023-08-15T00:51:31.735Z,984.02
2023-08-15T00:52:31.252Z,984.04
2023-08-15T00:53:31.227Z,984.04
2023-08-15T00:54:31.241Z,984.04
2023-08-15T00:55:31.203Z,984.03
2023-08-15T00:56:31.222Z,984.02
2023-08-15T00:57:31.222Z,984.00
2023-08-15T00:58:31.187Z,984.00
2023-08-15T00:59:31.157Z,984.01
2023-08-15T01:00:31.160Z,984.01
2023-08-15T01:01:31.171Z,984.01
2023-08-15T01:02:31.232Z,983.99
2023-08-15T01:03:31.278Z,983.97
2023-08-15T01:04:31.265Z,983.95
2023-08-15T01:05:31.108Z,983.93
2023-08-15T01:06:31.091Z,983.91
2023-08-15T01:07:31.064Z,983.89
2023-08-15T01:08:31.081Z,983.88
2023-08-15T01:09:31.061Z,983.88
2023-08-15T01:10:31.076Z,983.90
2023-08-15T01:11:31.022Z,983.94
2023-08-15T01:12:31.024Z,983.98
2023-08-15T01:13:31.002Z,984.00
2023-08-15T01:14:31.054Z,983.99
2023-08-15T01:15:30.974Z,983.96
2023-08-15T01:16:31.009Z,983.93
2023-08-15T01:17:31.060Z,983.93
2023-08-15T01:18:30.987Z,983.96
2023-08-15T01:19:31.683Z,983.97
2023-08-15T01:20:31.025Z,983.96
2023-08-15T01:21:30.909Z,983.95
2023-08-15T01:22:30.934Z,983.93
2023-08-15T01:23:30.884Z,983.92
2023-08-15T01:24:30.884Z,983.91
2023-08-15T01:25:30.858Z,983.89
2023-08-15T01:26:30.881Z,983.86
2023-08-15T01:27:30.850Z,983.83
2023-08-15T01:28:30.873Z,983.82
2023-08-15T01:29:30.832Z,983.82
2023-08-15T01:30:30.820Z,983.82
2023-08-15T01:31:30.873Z,983.82
2023-08-15T01:32:30.851Z,983.83
2023-08-15T01:33:31.298Z,983.82
2023-08-15T01:34:30.827Z,983.80
2023-08-15T01:35:30.752Z,983.80
2023-08-15T01:36:30.753Z,983.80
2023-08-15T01:37:30.740Z,983.81
2023-08-15T01:38:30.753Z,983.82
2023-08-15T01:39:30.711Z,983.82
2023-08-15T01:40:30.779Z,983.82
2023-08-15T01:41:30.677Z,983.81
2023-08-15T01:42:30.679Z,983.80
2023-08-15T01:43:30.662Z,983.80
2023-08-15T01:44:30.658Z,983.80
2023-08-15T01:45:30.682Z,983.81
2023-08-15T01:46:31.306Z,983.81
2023-08-15T01:47:30.649Z,983.82
2023-08-15T01:48:30.683Z,983.80
2023-08-15T01:49:30.581Z,983.80
2023-08-15T01:50:30.592Z,983.79
2023-08-15T01:51:30.559Z,983.78
2023-08-15T01:52:30.612Z,983.76
2023-08-15T01:53:30.547Z,983.77
2023-08-15T01:54:30.591Z,983.78
2023-08-15T01:55:30.530Z,983.80
2023-08-15T01:56:30.538Z,983.80
2023-08-15T01:57:30.541Z,983.81
2023-08-15T01:58:30.485Z,983.81
2023-08-15T01:59:30.508Z,983.81
2023-08-15T02:00:30.501Z,983.81
2023-08-15T02:01:30.506Z,983.79
2023-08-15T02:02:30.501Z,983.76
2023-08-15T02:03:30.462Z,983.72
2023-08-15T02:04:30.419Z,983.70
2023-08-15T02:05:30.551Z,983.71
2023-08-15T02:06:30.445Z,983.72
2023-08-15T02:07:30.404Z,983.74
2023-08-15T02:08:30.368Z,983.76
2023-08-15T02:09:30.378Z,983.79
2023-08-15T02:10:30.389Z,983.81
2023-08-15T02:11:30.360Z,983.83
2023-08-15T02:12:30.362Z,983.85
2023-08-15T02:13:30.338Z,983.84
2023-08-15T02:14:30.306Z,983.83
2023-08-15T02:15:30.370Z,983.82
2023-08-15T02:16:30.305Z,983.82
2023-08-15T02:17:30.334Z,983.81
2023-08-15T02:18:30.322Z,983.79
2023-08-15T02:19:30.260Z,983.77
2023-08-15T02:20:30.237Z,983.75
2023-08-15T02:21:30.295Z,983.74
2023-08-15T02:22:30.233Z,983.74
2023-08-15T02:23:30.215Z,983.73
2023-08-15T02:24:30.465Z,983.74
2023-08-15T02:25:30.201Z,983.73
2023-08-15T02:26:30.173Z,983.72
2023-08-15T02:27:30.236Z,983.71
2023-08-15T02:28:30.145Z,983.71
2023-08-15T02:29:31.653Z,983.72
2023-08-15T02:30:30.124Z,983.74
2023-08-15T02:31:30.169Z,983.77
2023-08-15T02:32:30.136Z,983.79
2023-08-15T02:33:31.083Z,983.79
2023-08-15T02:34:30.099Z,983.79
2023-08-15T02:35:30.082Z,983.80
2023-08-15T02:36:30.050Z,983.83
2023-08-15T02:37:30.060Z,983.86
2023-08-15T02:38:30.325Z,983.87
2023-08-15T02:39:30.035Z,983.86
2023-08-15T02:40:30.006Z,983.86
2023-08-15T02:41:30.504Z,983.88
2023-08-15T02:42:29.998Z,983.89
2023-08-15T02:43:30.330Z,983.90
2023-08-15T02:44:30.008Z,983.90
2023-08-15T02:45:29.965Z,983.90
2023-08-15T02:46:30.019Z,983.89
2023-08-15T02:47:29.954Z,983.86
2023-08-15T02:48:29.921Z,983.82
2023-08-15T02:49:29.922Z,983.79
2023-08-15T02:50:29.923Z,983.78
2023-08-15T02:51:30.081Z,983.77
2023-08-15T02:52:29.870Z,983.75
2023-08-15T02:53:29.882Z,983.72
2023-08-15T02:54:29.858Z,983.69
2023-08-15T02:55:29.862Z,983.68
2023-08-15T02:56:29.863Z,983.66
2023-08-15T02:57:30.123Z,983.64
2023-08-15T02:58:29.824Z,983.64
2023-08-15T02:59:29.845Z,983.64
2023-08-15T03:00:29.786Z,983.67
2023-08-15T03:01:29.803Z,983.69
2023-08-15T03:02:30.391Z,983.69
2023-08-15T03:03:30.061Z,983.67
2023-08-15T03:04:29.754Z,983.65
2023-08-15T03:05:29.772Z,983.63
2023-08-15T03:06:29.883Z,983.61
2023-08-15T03:07:29.719Z,983.60
2023-08-15T03:08:29.703Z,983.60
2023-08-15T03:09:29.725Z,983.60
2023-08-15T03:10:29.685Z,983.62
2023-08-15T03:11:29.688Z,983.64
2023-08-15T03:12:29.686Z,983.65
2023-08-15T03:13:29.657Z,983.65
2023-08-15T03:14:29.661Z,983.65
2023-08-15T03:15:29.631Z,983.66
2023-08-15T03:16:29.680Z,983.66
2023-08-15T03:17:29.641Z,983.67
2023-08-15T03:18:29.652Z,983.68
2023-08-15T03:19:29.586Z,983.72
2023-08-15T03:20:29.569Z,983.75
2023-08-15T03:21:29.577Z,983.76
2023-08-15T03:22:29.544Z,983.75
2023-08-15T03:23:29.601Z,983.73
2023-08-15T03:24:29.550Z,983.71
2023-08-15T03:25:29.524Z,983.68
2023-08-15T03:26:29.513Z,983.67
2023-08-15T03:27:29.505Z,983.65
2023-08-15T03:28:30.312Z,983.63
2023-08-15T03:29:29.528Z,983.62
2023-08-15T03:30:29.515Z,983.60
2023-08-15T03:31:29.965Z,983.59
2023-08-15T03:32:29.449Z,983.58
2023-08-15T03:33:29.501Z,983.56
2023-08-15T03:34:29.358Z,983.54
2023-08-15T03:35:29.490Z,983.51
2023-08-15T03:36:29.394Z,983.48
2023-08-15T03:37:29.395Z,983.46
2023-08-15T03:38:29.368Z,983.46
2023-08-15T03:39:29.378Z,983.47
2023-08-15T03:40:29.309Z,983.47
2023-08-15T03:41:29.632Z,983.47
2023-08-15T03:42:29.339Z,983.47
2023-08-15T03:43:29.312Z,983.46
2023-08-15T03:44:29.527Z,983.48
2023-08-15T03:45:29.328Z,983.50
2023-08-15T03:46:29.337Z,983.52
2023-08-15T03:47:29.246Z,983.55
2023-08-15T03:48:29.202Z,983.57
2023-08-15T03:49:29.204Z,983.59
2023-08-15T03:50:29.182Z,983.61
2023-08-15T03:51:45.751Z,983.62
2023-08-15T03:52:29.182Z,983.62
2023-08-15T03:53:29.172Z,983.61
2023-08-15T03:54:29.150Z,983.62
2023-08-15T03:55:30.324Z,983.64
2023-08-15T03:56:29.153Z,983.69
2023-08-15T03:57:29.126Z,983.73
2023-08-15T03:58:29.096Z,983.77
2023-08-15T03:59:29.118Z,983.82
2023-08-15T04:00:29.077Z,983.86
2023-08-15T04:01:29.089Z,983.88
2023-08-15T04:02:29.112Z,983.88
2023-08-15T04:03:29.117Z,983.89
2023-08-15T04:04:29.022Z,983.90
2023-08-15T04:05:29.035Z,983.91
2023-08-15T04:06:29.818Z,983.93
2023-08-15T04:07:29.002Z,983.95
2023-08-15T04:08:28.978Z,983.98
2023-08-15T04:09:28.998Z,984.00
2023-08-15T04:10:28.967Z,984.02
2023-08-15T04:11:28.978Z,984.04
2023-08-15T04:12:29.801Z,984.06
2023-08-15T04:13:28.936Z,984.09
2023-08-15T04:14:28.930Z,984.11
2023-08-15T04:15:28.926Z,984.13
2023-08-15T04:16:29.009Z,984.15
2023-08-15T04:17:28.914Z,984.16
2023-08-15T04:18:28.872Z,984.17
2023-08-15T04:19:28.889Z,984.19
2023-08-15T04:20:28.891Z,984.20
2023-08-15T04:21:28.870Z,984.19
2023-08-15T04:22:28.923Z,984.18
2023-08-15T04:23:28.834Z,984.18
2023-08-15T04:24:28.813Z,984.22
2023-08-15T04:25:31.486Z,984.25
2023-08-15T04:26:28.825Z,984.28
2023-08-15T04:27:28.814Z,984.29
2023-08-15T04:28:28.765Z,984.29
2023-08-15T04:29:28.775Z,984.28
2023-08-15T04:30:28.740Z,984.26
2023-08-15T04:31:28.802Z,984.24
2023-08-15T04:32:28.778Z,984.24
2023-08-15T04:33:28.759Z,984.25
2023-08-15T04:34:28.698Z,984.27
2023-08-15T04:35:28.702Z,984.28
2023-08-15T04:36:28.689Z,984.27
2023-08-15T04:37:28.714Z,984.25
2023-08-15T04:38:28.664Z,984.23
2023-08-15T04:39:28.660Z,984.22
2023-08-15T04:40:28.712Z,984.22
2023-08-15T04:41:28.636Z,984.22
2023-08-15T04:42:28.868Z,984.24
2023-08-15T04:43:28.615Z,984.24
2023-08-15T04:44:28.588Z,984.27
2023-08-15T04:45:29.084Z,984.33
2023-08-15T04:46:28.708Z,984.42
2023-08-15T04:47:28.629Z,984.55
2023-08-15T04:48:30.677Z,984.68
2023-08-15T04:49:28.561Z,984.86
2023-08-15T04:50:28.564Z,985.05
2023-08-15T04:51:28.550Z,984.80
2023-08-15T04:52:28.507Z,984.61
2023-08-15T04:53:28.536Z,984.47
2023-08-15T04:54:28.494Z,984.57
2023-08-15T04:55:28.492Z,984.79
2023-08-15T04:56:28.756Z,984.84
2023-08-15T04:57:28.470Z,984.79
2023-08-15T04:58:28.450Z,984.74
2023-08-15T04:59:28.497Z,984.69
2023-08-15T05:00:28.432Z,984.75
2023-08-15T05:01:28.473Z,984.74
2023-08-15T05:02:28.472Z,984.75
2023-08-15T05:03:28.409Z,984.78
2023-08-15T05:04:28.384Z,984.76
2023-08-15T05:05:28.456Z,984.75
2023-08-15T05:06:28.366Z,984.77
2023-08-15T05:07:28.383Z,984.75
2023-08-15T05:08:28.352Z,984.76
2023-08-15T05:09:28.381Z,984.78
2023-08-15T05:10:28.314Z,984.78
2023-08-15T05:11:28.333Z,984.75
2023-08-15T05:12:28.292Z,984.74
2023-08-15T05:13:28.295Z,984.74
2023-08-15T05:14:28.285Z,984.68
2023-08-15T05:15:28.306Z,984.59
2023-08-15T05:16:28.259Z,984.66
2023-08-15T05:17:31.518Z,984.67
2023-08-15T05:18:28.246Z,984.69
2023-08-15T05:19:28.236Z,984.72
2023-08-15T05:20:28.211Z,984.79
2023-08-15T05:21:28.219Z,984.83
2023-08-15T05:22:28.334Z,984.89
2023-08-15T05:23:28.667Z,984.95
2023-08-15T05:24:28.168Z,984.98
2023-08-15T05:25:28.197Z,984.97
2023-08-15T05:26:28.418Z,984.97
2023-08-15T05:27:28.159Z,985.00
2023-08-15T05:28:28.123Z,985.07
2023-08-15T05:29:28.149Z,985.10
2023-08-15T05:30:28.106Z,985.07
2023-08-15T05:31:28.870Z,985.06
2023-08-15T05:32:28.185Z,985.08
2023-08-15T05:33:28.093Z,985.13
2023-08-15T05:34:28.095Z,985.05
2023-08-15T05:35:28.114Z,984.94
2023-08-15T05:36:28.060Z,985.02
2023-08-15T05:37:28.049Z,985.01
2023-08-15T05:38:28.018Z,985.05
2023-08-15T05:39:28.039Z,985.00
2023-08-15T05:40:28.085Z,984.94
2023-08-15T05:41:28.026Z,984.89
2023-08-15T05:42:27.973Z,984.85
2023-08-15T05:43:27.994Z,984.81
2023-08-15T05:44:27.964Z,984.78
2023-08-15T05:45:27.957Z,984.75
2023-08-15T05:46:27.971Z,984.78
2023-08-15T05:47:28.292Z,984.72
2023-08-15T05:48:27.910Z,984.71
2023-08-15T05:49:28.408Z,984.74
2023-08-15T05:50:27.900Z,984.75
2023-08-15T05:51:27.894Z,984.72
2023-08-15T05:52:27.898Z,984.71
2023-08-15T05:53:27.875Z,984.69
2023-08-15T05:54:27.874Z,984.69
2023-08-15T05:55:27.891Z,984.64
2023-08-15T05:56:27.821Z,984.61
2023-08-15T05:57:27.824Z,984.58
2023-08-15T05:58:27.783Z,984.58
2023-08-15T05:59:27.836Z,984.60
2023-08-15T06:00:27.765Z,984.65
2023-08-15T06:01:27.801Z,984.63
2023-08-15T06:02:27.744Z,984.56
2023-08-15T06:03:45.006Z,984.48
2023-08-15T06:04:28.257Z,984.37
2023-08-15T06:05:27.741Z,984.27
2023-08-15T06:06:27.727Z,984.20
2023-08-15T06:07:28.376Z,984.16
2023-08-15T06:08:27.679Z,984.12
2023-08-15T06:09:27.689Z,984.04
2023-08-15T06:10:27.781Z,983.92
2023-08-15T06:11:27.736Z,983.86
2023-08-15T06:12:27.644Z,983.91
2023-08-15T06:13:27.647Z,984.00
2023-08-15T06:14:27.643Z,984.02
2023-08-15T06:15:27.611Z,983.99
2023-08-15T06:16:27.642Z,983.96
2023-08-15T06:17:27.677Z,983.95
2023-08-15T06:18:27.603Z,983.97
2023-08-15T06:19:27.615Z,984.01
2023-08-15T06:20:27.566Z,984.05
2023-08-15T06:21:27.538Z,984.05
2023-08-15T06:22:27.572Z,984.03
2023-08-15T06:23:27.586Z,984.04
2023-08-15T06:24:27.555Z,984.07
2023-08-15T06:25:27.573Z,984.11
2023-08-15T06:26:27.500Z,984.11
2023-08-15T06:27:27.470Z,984.09
2023-08-15T06:28:27.486Z,984.15
2023-08-15T06:29:27.454Z,984.18
2023-08-15T06:30:27.481Z,984.15
2023-08-15T06:31:27.639Z,984.12
2023-08-15T06:32:27.483Z,984.12
2023-08-15T06:33:27.404Z,984.20
2023-08-15T06:34:27.420Z,984.39
2023-08-15T06:35:27.610Z,984.58
2023-08-15T06:36:27.397Z,984.73
2023-08-15T06:37:27.386Z,984.77
2023-08-15T06:38:27.373Z,984.69
2023-08-15T06:39:27.336Z,984.58
2023-08-15T06:40:27.344Z,984.51
2023-08-15T06:41:27.358Z,984.47
2023-08-15T06:42:27.314Z,984.45
2023-08-15T06:43:27.361Z,984.43
2023-08-15T06:44:27.726Z,984.43
2023-08-15T06:45:27.276Z,984.47
2023-08-15T06:46:27.380Z,984.49
2023-08-15T06:47:27.262Z,984.48
2023-08-15T06:48:27.272Z,984.52
2023-08-15T06:49:27.339Z,984.56
2023-08-15T06:50:27.235Z,984.57
2023-08-15T06:51:27.209Z,984.55
2023-08-15T06:52:27.221Z,984.55
2023-08-15T06:53:27.197Z,984.53
2023-08-15T06:54:27.186Z,984.52
2023-08-15T06:55:27.202Z,984.56
2023-08-15T06:56:27.176Z,984.60
2023-08-15T06:57:27.161Z,984.62
2023-08-15T06:58:27.172Z,984.65
2023-08-15T06:59:27.200Z,984.67
2023-08-15T07:00:27.186Z,984.70
2023-08-15T07:01:27.108Z,984.73
2023-08-15T07:02:27.156Z,984.75
2023-08-15T07:03:27.182Z,984.76
2023-08-15T07:04:27.115Z,984.79
2023-08-15T07:05:27.747Z,984.78
2023-08-15T07:06:27.089Z,984.75
2023-08-15T07:07:27.091Z,984.78
2023-08-15T07:08:27.037Z,984.82
2023-08-15T07:09:27.020Z,984.82
2023-08-15T07:10:27.046Z,984.79
2023-08-15T07:11:26.989Z,984.76
2023-08-15T07:12:27.009Z,984.74
2023-08-15T07:13:26.993Z,984.75
2023-08-15T07:14:26.983Z,984.76
2023-08-15T07:15:26.967Z,984.77
2023-08-15T07:16:27.011Z,984.77
2023-08-15T07:17:26.957Z,984.77
2023-08-15T07:18:26.954Z,984.76
2023-08-15T07:19:26.912Z,984.71
2023-08-15T07:20:27.756Z,984.67
2023-08-15T07:21:29.223Z,984.67
2023-08-15T07:22:26.898Z,984.68
2023-08-15T07:23:26.864Z,984.69
2023-08-15T07:24:26.930Z,984.70
2023-08-15T07:25:26.869Z,984.71
2023-08-15T07:26:26.857Z,984.72
2023-08-15T07:27:26.875Z,984.74
2023-08-15T07:28:26.821Z,984.75
2023-08-15T07:29:26.886Z,984.75
2023-08-15T07:30:27.069Z,984.76
2023-08-15T07:31:26.813Z,984.73
2023-08-15T07:32:27.130Z,984.73
2023-08-15T07:33:26.757Z,984.73
2023-08-15T07:34:26.810Z,984.72
2023-08-15T07:35:26.733Z,984.70
2023-08-15T07:36:26.754Z,984.71
2023-08-15T07:37:28.052Z,984.73
2023-08-15T07:38:26.783Z,984.75
2023-08-15T07:39:26.690Z,984.75
2023-08-15T07:40:26.960Z,984.76
2023-08-15T07:41:26.675Z,984.76
2023-08-15T07:42:26.758Z,984.77
2023-08-15T07:43:26.645Z,984.78
2023-08-15T07:44:26.801Z,984.78
2023-08-15T07:45:26.650Z,984.81
2023-08-15T07:46:27.031Z,984.84
2023-08-15T07:47:26.652Z,984.86
2023-08-15T07:48:26.622Z,984.88
2023-08-15T07:49:26.621Z,984.90
2023-08-15T07:50:26.622Z,984.93
2023-08-15T07:51:26.565Z,984.97
2023-08-15T07:52:26.954Z,984.99
2023-08-15T07:53:26.570Z,984.99
2023-08-15T07:54:26.548Z,984.97
2023-08-15T07:55:28.015Z,984.95
2023-08-15T07:56:26.612Z,984.96
2023-08-15T07:57:26.532Z,984.99
2023-08-15T07:58:26.511Z,985.03
2023-08-15T07:59:26.500Z,985.02
2023-08-15T08:00:26.504Z,985.04
2023-08-15T08:01:26.520Z,985.06
2023-08-15T08:02:26.567Z,985.06
2023-08-15T08:03:26.486Z,985.05
2023-08-15T08:04:26.447Z,985.07
2023-08-15T08:05:26.477Z,985.07
2023-08-15T08:06:39.675Z,985.11
2023-08-15T08:07:26.412Z,985.11
2023-08-15T08:08:26.429Z,985.12
2023-08-15T08:09:26.371Z,985.11
2023-08-15T08:10:26.381Z,985.11
2023-08-15T08:11:26.361Z,985.12
2023-08-15T08:12:26.363Z,985.13
2023-08-15T08:13:27.887Z,985.14
2023-08-15T08:14:26.350Z,985.14
2023-08-15T08:15:26.310Z,985.14
2023-08-15T08:16:26.387Z,985.14
2023-08-15T08:17:26.394Z,985.16
2023-08-15T08:18:27.780Z,985.17
2023-08-15T08:19:26.296Z,985.20
2023-08-15T08:20:26.274Z,985.24
2023-08-15T08:21:26.257Z,985.24
2023-08-15T08:22:26.280Z,985.26
2023-08-15T08:23:26.236Z,985.27
2023-08-15T08:24:26.257Z,985.28
2023-08-15T08:25:26.204Z,985.27
2023-08-15T08:26:26.204Z,985.29
2023-08-15T08:27:26.188Z,985.29
2023-08-15T08:28:26.193Z,985.29
2023-08-15T08:29:26.218Z,985.28
2023-08-15T08:30:26.858Z,985.29
2023-08-15T08:31:26.144Z,985.26
2023-08-15T08:32:26.214Z,985.24
2023-08-15T08:33:26.120Z,985.25
2023-08-15T08:34:26.133Z,985.24
2023-08-15T08:35:26.101Z,985.27
2023-08-15T08:36:26.128Z,985.23
2023-08-15T08:37:26.091Z,985.23
2023-08-15T08:38:28.399Z,985.24
2023-08-15T08:39:31.667Z,985.23
2023-08-15T08:40:26.112Z,985.22
2023-08-15T08:41:26.034Z,985.25
2023-08-15T08:42:26.730Z,985.25
2023-08-15T08:43:26.064Z,985.25
2023-08-15T08:44:26.172Z,985.25
2023-08-15T08:45:26.102Z,985.25
2023-08-15T08:46:26.038Z,985.25
2023-08-15T08:47:26.148Z,985.28
2023-08-15T08:48:25.986Z,985.29
2023-08-15T08:49:25.962Z,985.28
2023-08-15T08:50:25.983Z,985.26
2023-08-15T08:51:25.971Z,985.24
2023-08-15T08:52:25.965Z,985.23
2023-08-15T08:53:25.956Z,985.23
2023-08-15T08:54:35.846Z,985.25
2023-08-15T08:55:25.903Z,985.25
2023-08-15T08:56:25.978Z,985.27
2023-08-15T08:57:25.898Z,985.27
2023-08-15T08:58:25.881Z,985.26
2023-08-15T08:59:25.855Z,985.25
2023-08-15T09:00:25.862Z,985.26
2023-08-15T09:01:25.926Z,985.27
2023-08-15T09:02:26.230Z,985.27
2023-08-15T09:03:25.905Z,985.27
2023-08-15T09:04:25.815Z,985.27
2023-08-15T09:05:26.059Z,985.27
2023-08-15T09:06:25.786Z,985.25
2023-08-15T09:07:25.793Z,985.26
2023-08-15T09:08:26.022Z,985.26
2023-08-15T09:09:25.754Z,985.27
2023-08-15T09:10:25.752Z,985.28
2023-08-15T09:11:25.852Z,985.27
2023-08-15T09:12:25.772Z,985.23
2023-08-15T09:13:25.713Z,985.27
2023-08-15T09:14:25.727Z,985.24
2023-08-15T09:15:25.718Z,985.26
2023-08-15T09:16:25.736Z,985.24
2023-08-15T09:17:25.676Z,985.22
2023-08-15T09:18:25.681Z,985.21
2023-08-15T09:19:25.634Z,985.20
2023-08-15T09:20:25.688Z,985.22
2023-08-15T09:21:25.822Z,985.22
2023-08-15T09:22:25.638Z,985.21
2023-08-15T09:23:25.599Z,985.24
2023-08-15T09:24:25.599Z,985.24
2023-08-15T09:25:25.650Z,985.25
2023-08-15T09:26:25.684Z,985.26
2023-08-15T09:27:25.552Z,985.26
2023-08-15T09:28:25.562Z,985.25
2023-08-15T09:29:25.604Z,985.24
2023-08-15T09:30:25.615Z,985.24
2023-08-15T09:31:25.602Z,985.28
2023-08-15T09:32:25.663Z,985.26
2023-08-15T09:33:25.520Z,985.28
2023-08-15T09:34:25.501Z,985.30
2023-08-15T09:35:25.470Z,985.31
2023-08-15T09:36:25.479Z,985.33
2023-08-15T09:37:25.449Z,985.33
2023-08-15T09:38:25.480Z,985.36
2023-08-15T09:39:25.468Z,985.40
2023-08-15T09:40:25.542Z,985.37
2023-08-15T09:41:27.787Z,985.39
2023-08-15T09:42:25.420Z,985.44
2023-08-15T09:43:25.412Z,985.43
2023-08-15T09:44:25.461Z,985.43
2023-08-15T09:45:25.458Z,985.43
2023-08-15T09:46:25.439Z,985.47
2023-08-15T09:47:25.410Z,985.47
2023-08-15T09:48:25.349Z,985.49
2023-08-15T09:49:25.320Z,985.43
2023-08-15T09:50:25.451Z,985.43
2023-08-15T09:51:25.322Z,985.40
2023-08-15T09:52:25.342Z,985.40
2023-08-15T09:53:25.278Z,985.43
2023-08-15T09:54:25.299Z,985.40
2023-08-15T09:55:25.268Z,985.39
2023-08-15T09:56:25.281Z,985.36
2023-08-15T09:57:25.232Z,985.36
2023-08-15T09:58:25.241Z,985.37
2023-08-15T09:59:25.223Z,985.41
2023-08-15T10:00:25.219Z,985.36
2023-08-15T10:01:25.232Z,985.36
2023-08-15T10:02:25.209Z,985.36
2023-08-15T10:03:25.258Z,985.39
2023-08-15T10:04:25.181Z,985.40
2023-08-15T10:05:25.159Z,985.40
2023-08-15T10:06:25.160Z,985.41
2023-08-15T10:07:25.133Z,985.44
2023-08-15T10:08:25.173Z,985.46
2023-08-15T10:09:25.115Z,985.44
2023-08-15T10:10:25.121Z,985.43
2023-08-15T10:11:25.094Z,985.42
2023-08-15T10:12:25.098Z,985.44
2023-08-15T10:13:25.116Z,985.44
2023-08-15T10:14:25.081Z,985.44
2023-08-15T10:15:25.062Z,985.43
2023-08-15T10:16:25.123Z,985.44
2023-08-15T10:17:25.413Z,985.45
2023-08-15T10:18:25.060Z,985.47
2023-08-15T10:19:25.038Z,985.46
2023-08-15T10:20:25.020Z,985.46
2023-08-15T10:21:24.993Z,985.49
2023-08-15T10:22:25.293Z,985.50
2023-08-15T10:23:24.971Z,985.49
2023-08-15T10:24:24.996Z,985.47
2023-08-15T10:25:24.976Z,985.52
2023-08-15T10:26:25.032Z,985.51
2023-08-15T10:27:24.921Z,985.49
2023-08-15T10:28:24.928Z,985.49
2023-08-15T10:29:25.041Z,985.50
2023-08-15T10:30:24.913Z,985.46
2023-08-15T10:31:24.942Z,985.43
2023-08-15T10:32:24.867Z,985.42
2023-08-15T10:33:24.896Z,985.44
2023-08-15T10:34:24.849Z,985.44
2023-08-15T10:35:32.014Z,985.43
2023-08-15T10:36:27.067Z,985.43
2023-08-15T10:37:24.834Z,985.42
2023-08-15T10:38:24.829Z,985.40
2023-08-15T10:39:24.809Z,985.52
2023-08-15T10:40:24.782Z,985.49
2023-08-15T10:41:24.790Z,985.42
2023-08-15T10:42:24.790Z,985.43
2023-08-15T10:43:24.767Z,985.48
2023-08-15T10:44:24.742Z,985.52
2023-08-15T10:45:24.740Z,985.48
2023-08-15T10:46:24.755Z,985.50
2023-08-15T10:47:24.743Z,985.50
2023-08-15T10:48:24.725Z,985.46
2023-08-15T10:49:24.709Z,985.46
2023-08-15T10:50:24.680Z,985.47
2023-08-15T10:51:24.705Z,985.48
2023-08-15T10:52:24.665Z,985.51
2023-08-15T10:53:24.676Z,985.52
2023-08-15T10:54:24.664Z,985.52
2023-08-15T10:55:24.658Z,985.52
2023-08-15T10:56:24.619Z,985.52
2023-08-15T10:57:24.620Z,985.55
2023-08-15T10:58:24.598Z,985.55
2023-08-15T10:59:24.600Z,985.55
2023-08-15T11:00:24.607Z,985.58
2023-08-15T11:01:24.644Z,985.54
2023-08-15T11:02:24.594Z,985.54
2023-08-15T11:03:24.589Z,985.50
2023-08-15T11:04:24.530Z,985.54
2023-08-15T11:05:24.602Z,985.51
2023-08-15T11:06:24.567Z,985.50
2023-08-15T11:07:24.526Z,985.51
2023-08-15T11:08:24.517Z,985.54
2023-08-15T11:09:24.529Z,985.54
2023-08-15T11:10:24.483Z,985.51
2023-08-15T11:11:24.510Z,985.48
2023-08-15T11:12:24.513Z,985.51
2023-08-15T11:13:24.495Z,985.51
2023-08-15T11:14:24.439Z,985.51
2023-08-15T11:15:24.496Z,985.55
2023-08-15T11:16:24.509Z,985.52
2023-08-15T11:17:24.402Z,985.54
2023-08-15T11:18:24.433Z,985.56
2023-08-15T11:19:24.393Z,985.54
2023-08-15T11:20:24.401Z,985.55
2023-08-15T11:21:24.384Z,985.61
2023-08-15T11:22:24.376Z,985.58
2023-08-15T11:23:24.378Z,985.56
2023-08-15T11:24:24.358Z,985.56
2023-08-15T11:25:24.335Z,985.63
2023-08-15T11:26:24.310Z,985.59
2023-08-15T11:27:24.558Z,985.60
2023-08-15T11:28:24.320Z,985.58
2023-08-15T11:29:24.300Z,985.60
2023-08-15T11:30:24.314Z,985.53
2023-08-15T11:31:24.321Z,985.51
2023-08-15T11:32:24.403Z,985.50
2023-08-15T11:33:24.274Z,985.51
2023-08-15T11:34:24.267Z,985.49
2023-08-15T11:35:24.249Z,985.49
2023-08-15T11:36:24.214Z,985.53
2023-08-15T11:37:24.435Z,985.55
2023-08-15T11:38:24.219Z,985.59
2023-08-15T11:39:24.208Z,985.59
2023-08-15T11:40:24.179Z,985.60
2023-08-15T11:41:24.181Z,985.55
2023-08-15T11:42:24.168Z,985.56
2023-08-15T11:43:24.181Z,985.56
2023-08-15T11:44:24.139Z,985.55
2023-08-15T11:45:24.313Z,985.56
2023-08-15T11:46:24.619Z,985.54
2023-08-15T11:47:24.422Z,985.56
2023-08-15T11:48:24.112Z,985.64
2023-08-15T11:49:24.345Z,985.64
2023-08-15T11:50:37.920Z,985.60
2023-08-15T11:51:24.101Z,985.65
2023-08-15T11:52:24.357Z,985.64
2023-08-15T11:53:25.418Z,985.63
2023-08-15T11:54:24.048Z,985.61
2023-08-15T11:55:24.056Z,985.58
2023-08-15T11:56:24.016Z,985.60
2023-08-15T11:57:24.294Z,985.63
2023-08-15T11:58:24.029Z,985.67
2023-08-15T11:59:24.029Z,985.75
2023-08-15T12:00:23.966Z,985.66
2023-08-15T12:01:24.062Z,985.68
2023-08-15T12:02:23.965Z,985.70
2023-08-15T12:03:23.966Z,985.73
2023-08-15T12:04:25.119Z,985.75
2023-08-15T12:05:23.974Z,985.72
2023-08-15T12:06:23.927Z,985.73
2023-08-15T12:07:24.162Z,985.70
2023-08-15T12:08:23.881Z,985.74
2023-08-15T12:09:23.917Z,985.72
2023-08-15T12:10:23.863Z,985.69
2023-08-15T12:11:23.864Z,985.66
2023-08-15T12:12:24.096Z,985.64
2023-08-15T12:13:23.850Z,985.66
2023-08-15T12:14:23.859Z,985.64
2023-08-15T12:15:23.865Z,985.64
2023-08-15T12:16:23.906Z,985.60
2023-08-15T12:17:24.193Z,985.62
2023-08-15T12:18:23.782Z,985.58
2023-08-15T12:19:25.941Z,985.58
2023-08-15T12:20:23.770Z,985.59
2023-08-15T12:21:23.795Z,985.60
2023-08-15T12:22:25.559Z,985.61
2023-08-15T12:23:28.596Z,985.65
2023-08-15T12:24:23.733Z,985.65
2023-08-15T12:25:23.773Z,985.66
2023-08-15T12:26:23.721Z,985.68
2023-08-15T12:27:23.707Z,985.71
2023-08-15T12:28:23.925Z,985.74